Terminal Aerodrome Forecast
Issued by NWS Cleveland, OH

Home | Current Version | Previous Version | Graphics & Text | Print | Product List | Glossary On
Versions: 1 2 3 4 5 6 7 8 9 10 11 12 13 14 15 16 17 18 19 20 21 22 23 24 25 26 27
000
FTUS41 KCLE 291137
TAFMFD
TAF
KMFD 291137Z 2912/3012 32005KT 2SM BR OVC002
      TEMPO 2912/2913 1/2SM FG
     FM291400 33005KT 4SM BR OVC007
     FM291500 32007KT P6SM OVC008
     FM291800 35007KT P6SM OVC015
     FM300000 VRB04KT P6SM SCT018=

USA.gov is the U.S. government's official web portal to all federal, state and local government web resources and services.